createdAt,value
2019-05-10T00:02:44.721Z,32.30
2019-05-10T00:05:52.624Z,32.30
2019-05-10T00:08:48.030Z,32.30
2019-05-10T00:12:03.337Z,32.30
2019-05-10T00:14:56.299Z,32.30
2019-05-10T00:17:48.015Z,32.30
2019-05-10T00:20:39.193Z,32.30
2019-05-10T00:23:30.847Z,32.30
2019-05-10T00:26:23.117Z,32.20
2019-05-10T00:29:15.841Z,32.20
2019-05-10T00:32:07.108Z,32.20
2019-05-10T00:34:58.660Z,32.20
2019-05-10T00:37:50.266Z,32.20
2019-05-10T00:40:41.862Z,32.20
2019-05-10T00:43:45.389Z,32.20
2019-05-10T00:46:36.879Z,32.20
2019-05-10T00:49:28.575Z,32.20
2019-05-10T00:52:20.845Z,32.20
2019-05-10T00:55:18.930Z,32.10
2019-05-10T00:58:06.526Z,32.20
2019-05-10T01:00:58.292Z,32.20
2019-05-10T01:03:49.786Z,32.20
2019-05-10T01:06:41.148Z,32.20
2019-05-10T01:09:32.518Z,32.20
2019-05-10T01:12:23.962Z,32.20
2019-05-10T01:15:15.552Z,32.20
2019-05-10T01:18:08.048Z,32.20
2019-05-10T01:20:59.621Z,32.20
2019-05-10T01:23:51.057Z,32.20
2019-05-10T01:26:43.700Z,32.20
2019-05-10T01:29:36.271Z,32.20
2019-05-10T01:32:27.923Z,32.20
2019-05-10T01:35:30.468Z,32.20
2019-05-10T01:38:25.836Z,32.20
2019-05-10T01:41:17.038Z,32.20
2019-05-10T01:44:08.375Z,32.20
2019-05-10T01:47:01.889Z,32.20
2019-05-10T01:49:53.141Z,32.20
2019-05-10T01:52:44.687Z,32.20
2019-05-10T01:55:50.830Z,32.20
2019-05-10T01:58:33.466Z,32.20
2019-05-10T02:01:24.823Z,32.20
2019-05-10T02:04:17.672Z,32.30
2019-05-10T02:07:08.715Z,32.30
2019-05-10T02:10:00.324Z,32.30
2019-05-10T02:12:51.782Z,32.30
2019-05-10T02:15:43.664Z,32.30
2019-05-10T02:18:35.048Z,32.30
2019-05-10T02:21:26.905Z,32.30
2019-05-10T02:24:26.770Z,32.30
2019-05-10T02:27:17.879Z,32.40
2019-05-10T02:30:12.956Z,32.50
2019-05-10T02:33:04.285Z,32.60
2019-05-10T02:35:55.704Z,32.60
2019-05-10T02:38:47.056Z,32.70
2019-05-10T02:41:39.318Z,32.70
2019-05-10T02:44:30.817Z,32.70
2019-05-10T02:47:25.093Z,32.70
2019-05-10T02:50:16.736Z,32.80
2019-05-10T02:53:08.659Z,32.70
2019-05-10T02:56:00.483Z,32.80
2019-05-10T02:58:56.372Z,32.80
2019-05-10T03:01:49.131Z,32.80
2019-05-10T03:12:45.374Z,32.70
2019-05-10T03:15:40.472Z,32.70
2019-05-10T03:18:32.789Z,32.70
2019-05-10T03:21:25.073Z,32.80
2019-05-10T03:24:16.620Z,32.80
2019-05-10T03:27:08.255Z,32.80
2019-05-10T03:29:59.932Z,32.80
2019-05-10T03:32:51.255Z,32.90
2019-05-10T03:35:42.574Z,32.90
2019-05-10T03:38:36.020Z,32.90
2019-05-10T03:41:27.511Z,32.90
2019-05-10T03:44:18.735Z,33.00
2019-05-10T03:47:10.942Z,33.00
2019-05-10T03:50:08.834Z,33.10
2019-05-10T03:52:56.716Z,33.10
2019-05-10T03:55:50.974Z,33.10
2019-05-10T03:58:45.531Z,33.00
2019-05-10T04:01:44.398Z,33.10
2019-05-10T04:07:56.121Z,33.00
2019-05-10T04:10:57.237Z,33.00
2019-05-10T04:13:55.036Z,33.10
2019-05-10T04:16:50.159Z,33.10
2019-05-10T04:19:48.890Z,33.00
2019-05-10T04:22:41.040Z,33.10
2019-05-10T04:25:33.421Z,33.10
2019-05-10T04:28:27.466Z,33.20
2019-05-10T04:31:18.248Z,33.20
2019-05-10T04:37:22.915Z,33.20
2019-05-10T04:40:18.003Z,33.10
2019-05-10T04:43:09.766Z,33.00
2019-05-10T04:46:01.678Z,33.00
2019-05-10T04:49:12.137Z,33.00
2019-05-10T04:52:11.810Z,32.90
2019-05-10T04:55:04.545Z,33.10
2019-05-10T04:57:59.875Z,33.20
2019-05-10T05:00:52.603Z,33.20
2019-05-10T05:03:44.743Z,33.20
2019-05-10T05:06:36.583Z,33.20
2019-05-10T05:09:39.095Z,33.20
2019-05-10T05:12:31.788Z,33.10
2019-05-10T05:15:25.166Z,33.20
2019-05-10T05:18:20.884Z,33.10
2019-05-10T05:21:12.940Z,33.10
2019-05-10T05:24:03.806Z,33.20
2019-05-10T05:26:58.279Z,33.40
2019-05-10T05:30:07.554Z,33.50
2019-05-10T05:32:59.224Z,33.50
2019-05-10T05:35:51.348Z,33.60
2019-05-10T05:38:46.945Z,33.60
2019-05-10T05:41:47.584Z,33.60
2019-05-10T05:44:40.463Z,33.60
2019-05-10T05:47:37.652Z,33.60
2019-05-10T05:50:28.769Z,33.60
2019-05-10T05:53:22.498Z,33.60
2019-05-10T05:56:17.884Z,33.60
2019-05-10T05:59:17.258Z,33.60
2019-05-10T06:02:07.303Z,33.60
2019-05-10T06:04:57.363Z,33.60
2019-05-10T06:07:55.508Z,33.70
2019-05-10T06:10:56.418Z,33.70
2019-05-10T06:13:44.282Z,33.70
2019-05-10T06:16:37.893Z,33.70
2019-05-10T06:19:31.186Z,33.80
2019-05-10T06:22:24.725Z,33.80
2019-05-10T06:25:28.814Z,33.80
2019-05-10T06:28:26.407Z,33.80
2019-05-10T06:31:05.944Z,33.80
2019-05-10T06:33:57.388Z,33.80
2019-05-10T06:36:50.747Z,33.80
2019-05-10T06:39:53.986Z,33.70
2019-05-10T06:42:47.522Z,33.70
2019-05-10T06:45:40.165Z,33.70
2019-05-10T06:48:33.639Z,33.70
2019-05-10T06:51:25.512Z,33.70
2019-05-10T06:54:17.220Z,33.50
2019-05-10T06:57:26.601Z,33.30
2019-05-10T07:00:31.406Z,33.40
2019-05-10T07:03:22.540Z,33.40
2019-05-10T07:06:14.391Z,33.40
2019-05-10T07:09:06.260Z,33.50
2019-05-10T07:11:59.037Z,33.40
2019-05-10T07:14:50.574Z,33.50
2019-05-10T07:17:46.999Z,33.40
2019-05-10T07:20:34.843Z,33.40
2019-05-10T07:23:38.975Z,33.50
2019-05-10T07:26:31.543Z,33.50
2019-05-10T07:29:36.264Z,33.50
2019-05-10T07:32:24.644Z,33.40
2019-05-10T07:41:02.873Z,33.40
2019-05-10T07:44:00.751Z,33.30
2019-05-10T07:46:53.243Z,33.30
2019-05-10T07:49:39.886Z,33.40
2019-05-10T07:52:36.242Z,33.50
2019-05-10T07:55:28.201Z,33.50
2019-05-10T07:58:18.877Z,33.50
2019-05-10T08:01:10.404Z,33.50
2019-05-10T08:04:05.405Z,33.30
2019-05-10T08:06:56.623Z,33.30
2019-05-10T08:09:48.788Z,33.20
2019-05-10T08:12:45.643Z,33.20
2019-05-10T08:15:38.391Z,33.20
2019-05-10T08:18:29.443Z,33.20
2019-05-10T08:21:27.547Z,33.10
2019-05-10T08:24:22.213Z,33.10
2019-05-10T08:27:17.108Z,33.10
2019-05-10T08:30:24.817Z,33.10
2019-05-10T08:33:09.391Z,33.10
2019-05-10T08:36:04.955Z,33.00
2019-05-10T08:39:05.047Z,33.00
2019-05-10T08:42:01.329Z,33.00
2019-05-10T08:44:42.600Z,33.00
2019-05-10T08:47:33.530Z,33.00
2019-05-10T08:50:42.609Z,33.00
2019-05-10T08:53:23.095Z,33.00
2019-05-10T08:56:20.865Z,33.00
2019-05-10T08:59:09.595Z,33.10
2019-05-10T09:02:02.138Z,33.20
2019-05-10T09:04:53.021Z,33.10
2019-05-10T09:07:45.413Z,33.10
2019-05-10T09:10:37.813Z,33.10
2019-05-10T09:13:33.926Z,33.20
2019-05-10T09:16:23.703Z,33.20
2019-05-10T09:19:13.969Z,33.20
2019-05-10T09:22:05.641Z,33.20
2019-05-10T09:24:57.854Z,33.20
2019-05-10T09:27:49.864Z,33.20
2019-05-10T09:30:56.892Z,33.20
2019-05-10T09:33:41.005Z,33.20
2019-05-10T09:36:31.671Z,33.20
2019-05-10T09:39:25.254Z,33.10
2019-05-10T09:42:25.612Z,33.10
2019-05-10T09:45:12.861Z,33.10
2019-05-10T09:48:12.794Z,33.10
2019-05-10T09:51:04.656Z,33.10
2019-05-10T09:54:00.311Z,33.10
2019-05-10T09:56:57.496Z,33.10
2019-05-10T09:59:53.466Z,33.10
2019-05-10T10:02:56.199Z,33.10
2019-05-10T10:05:48.600Z,33.10
2019-05-10T10:08:49.280Z,33.10
2019-05-10T10:11:40.150Z,33.10
2019-05-10T10:14:38.092Z,33.10
2019-05-10T10:17:27.500Z,33.10
2019-05-10T10:20:22.042Z,33.10
2019-05-10T10:23:24.615Z,33.20
2019-05-10T10:26:22.337Z,33.20
2019-05-10T10:29:17.127Z,33.30
2019-05-10T10:32:24.817Z,33.30
2019-05-10T10:35:21.017Z,33.30
2019-05-10T10:38:09.232Z,33.30
2019-05-10T10:41:03.809Z,33.30
2019-05-10T10:43:58.341Z,33.30
2019-05-10T10:46:58.319Z,33.40
2019-05-10T10:50:13.434Z,33.30
2019-05-10T10:53:04.606Z,33.30
2019-05-10T10:56:03.862Z,33.30
2019-05-10T10:58:57.798Z,33.30
2019-05-10T11:02:27.827Z,33.40
2019-05-10T11:04:54.098Z,33.30
2019-05-10T11:07:47.787Z,33.40
2019-05-10T11:10:40.547Z,33.40
2019-05-10T11:13:44.135Z,33.40
2019-05-10T11:16:27.727Z,33.30
2019-05-10T11:19:20.536Z,33.30
2019-05-10T11:22:13.130Z,33.40
2019-05-10T11:25:09.658Z,33.30
2019-05-10T11:28:01.596Z,33.40
2019-05-10T11:30:52.809Z,33.40
2019-05-10T11:33:52.281Z,33.50
2019-05-10T11:36:45.349Z,33.50
2019-05-10T11:39:41.947Z,33.50
2019-05-10T11:42:30.852Z,33.50
2019-05-10T11:45:26.291Z,33.50
2019-05-10T11:48:17.099Z,33.40
2019-05-10T11:51:12.289Z,33.40
2019-05-10T11:54:01.544Z,33.40
2019-05-10T11:56:58.446Z,33.40
2019-05-10T11:59:45.716Z,33.40
2019-05-10T12:02:59.893Z,33.40
2019-05-10T12:05:33.111Z,33.40
2019-05-10T12:08:25.468Z,33.40
2019-05-10T12:11:29.313Z,33.40
2019-05-10T12:14:13.787Z,33.40
2019-05-10T12:17:06.314Z,33.50
2019-05-10T12:20:02.459Z,33.40
2019-05-10T12:30:41.448Z,33.50
2019-05-10T12:33:33.566Z,33.50
2019-05-10T12:36:27.443Z,33.40
2019-05-10T12:39:18.495Z,33.40
2019-05-10T12:42:14.275Z,33.40
2019-05-10T12:45:05.496Z,33.40
2019-05-10T12:48:01.112Z,33.50
2019-05-10T12:50:56.234Z,33.40
2019-05-10T12:53:49.274Z,33.40
2019-05-10T12:56:43.864Z,33.40
2019-05-10T12:59:58.695Z,33.40
2019-05-10T13:02:53.290Z,33.40
2019-05-10T13:05:52.584Z,33.40
2019-05-10T13:08:44.853Z,33.40
2019-05-10T13:11:38.797Z,33.40
2019-05-10T13:14:31.503Z,33.40
2019-05-10T13:17:31.975Z,33.40
2019-05-10T13:20:30.719Z,33.40
2019-05-10T13:23:24.359Z,33.50
2019-05-10T13:26:17.604Z,33.40
2019-05-10T13:29:10.536Z,33.40
2019-05-10T13:32:07.027Z,33.50
2019-05-10T13:34:59.691Z,33.40
2019-05-10T13:38:13.222Z,33.30
2019-05-10T13:41:08.900Z,33.30
2019-05-10T13:44:05.064Z,33.30
2019-05-10T13:46:54.998Z,33.30
2019-05-10T13:49:52.895Z,33.30
2019-05-10T13:52:50.725Z,33.30
2019-05-10T13:55:43.700Z,33.30
2019-05-10T13:58:42.613Z,33.30
2019-05-10T14:01:35.629Z,33.30
2019-05-10T14:04:34.129Z,33.30
2019-05-10T14:07:35.108Z,33.30
2019-05-10T14:10:31.125Z,33.30
2019-05-10T14:13:26.332Z,33.30
2019-05-10T14:16:19.597Z,33.30
2019-05-10T14:19:22.262Z,33.30
2019-05-10T14:22:06.520Z,33.30
2019-05-10T14:24:59.826Z,33.30
2019-05-10T14:27:55.820Z,33.30
2019-05-10T14:31:09.097Z,33.30
2019-05-10T14:34:19.533Z,33.30
2019-05-10T14:36:58.911Z,33.30
2019-05-10T14:39:54.976Z,33.30
2019-05-10T14:42:53.460Z,33.30
2019-05-10T14:45:47.730Z,33.30
2019-05-10T14:48:39.838Z,33.30
2019-05-10T14:51:49.666Z,33.30
2019-05-10T14:54:25.729Z,33.30
2019-05-10T14:57:21.270Z,33.30
2019-05-10T15:00:13.468Z,33.30
2019-05-10T15:03:05.748Z,33.20
2019-05-10T15:06:01.552Z,33.20
2019-05-10T15:08:52.390Z,33.20
2019-05-10T15:11:44.513Z,33.20
2019-05-10T15:14:39.172Z,33.10
2019-05-10T15:17:31.593Z,33.20
2019-05-10T15:20:24.511Z,33.10
2019-05-10T15:23:16.562Z,33.10
2019-05-10T15:26:12.054Z,33.10
2019-05-10T15:29:03.274Z,33.10
2019-05-10T15:31:55.633Z,33.10
2019-05-10T15:35:04.366Z,33.10
2019-05-10T15:37:45.470Z,33.10
2019-05-10T15:40:38.633Z,33.10
2019-05-10T15:43:26.436Z,33.20
2019-05-10T15:46:23.359Z,33.10
2019-05-10T15:49:34.467Z,33.10
2019-05-10T15:52:25.773Z,33.10
2019-05-10T15:55:26.944Z,33.10
2019-05-10T15:58:13.206Z,33.10
2019-05-10T16:01:05.655Z,33.10
2019-05-10T16:03:56.540Z,33.10
2019-05-10T16:06:48.028Z,33.10
2019-05-10T16:09:39.267Z,33.10
2019-05-10T16:12:30.471Z,33.10
2019-05-10T16:15:26.001Z,33.10
2019-05-10T16:18:17.452Z,33.10
2019-05-10T16:21:15.313Z,33.10
2019-05-10T16:24:03.174Z,33.10
2019-05-10T16:26:59.870Z,33.10
2019-05-10T16:29:47.312Z,33.10
2019-05-10T16:32:42.786Z,33.10
2019-05-10T16:35:38.719Z,33.10
2019-05-10T16:38:27.667Z,33.10
2019-05-10T16:41:20.262Z,33.10
2019-05-10T16:44:12.807Z,33.10
2019-05-10T16:47:04.579Z,33.10
2019-05-10T16:50:01.639Z,33.20
2019-05-10T16:52:59.544Z,33.20
2019-05-10T16:55:49.105Z,33.10
2019-05-10T16:58:52.641Z,33.10
2019-05-10T17:02:14.083Z,33.10
2019-05-10T17:05:14.538Z,33.20
2019-05-10T17:08:08.862Z,33.20
2019-05-10T17:11:23.841Z,33.20
2019-05-10T17:14:18.018Z,33.20
2019-05-10T17:17:10.406Z,33.20
2019-05-10T17:20:07.363Z,33.20
2019-05-10T17:23:17.452Z,33.20
2019-05-10T17:26:19.583Z,33.20
2019-05-10T17:29:14.744Z,33.20
2019-05-10T17:35:20.414Z,33.20
2019-05-10T17:38:14.063Z,33.20
2019-05-10T17:41:05.947Z,33.20
2019-05-10T17:43:58.136Z,33.20
2019-05-10T17:46:50.169Z,33.20
2019-05-10T17:49:42.042Z,33.20
2019-05-10T17:52:32.625Z,33.20
2019-05-10T17:55:25.448Z,33.20
2019-05-10T17:58:17.196Z,33.20
2019-05-10T18:01:08.640Z,33.20
2019-05-10T18:04:00.055Z,33.20
2019-05-10T18:06:51.963Z,33.20
2019-05-10T18:09:43.055Z,33.20
2019-05-10T18:12:34.049Z,33.30
2019-05-10T18:15:27.786Z,33.30
2019-05-10T18:18:17.660Z,33.30
2019-05-10T18:21:09.331Z,33.30
2019-05-10T18:24:00.365Z,33.30
2019-05-10T18:26:51.741Z,33.30
2019-05-10T18:29:45.649Z,33.30
2019-05-10T18:32:37.860Z,33.30
2019-05-10T18:35:28.280Z,33.30
2019-05-10T18:38:19.346Z,33.30
2019-05-10T18:41:11.900Z,33.30
2019-05-10T18:44:05.131Z,33.30
2019-05-10T18:46:55.722Z,33.30
2019-05-10T18:49:47.096Z,33.30
2019-05-10T18:52:40.698Z,33.30
2019-05-10T18:55:32.232Z,33.30
2019-05-10T18:58:29.085Z,33.30
2019-05-10T19:01:16.586Z,33.30
2019-05-10T19:04:13.685Z,33.30
2019-05-10T19:07:10.016Z,33.30
2019-05-10T19:09:55.121Z,33.30
2019-05-10T19:12:59.952Z,33.30
2019-05-10T19:15:46.374Z,33.30
2019-05-10T19:18:33.246Z,33.30
2019-05-10T19:21:24.970Z,33.30
2019-05-10T19:24:16.260Z,33.30
2019-05-10T19:27:09.317Z,33.30
2019-05-10T19:30:00.022Z,33.30
2019-05-10T19:32:56.816Z,33.30
2019-05-10T19:35:46.611Z,33.30
2019-05-10T19:38:37.415Z,33.30
2019-05-10T19:41:29.462Z,33.30
2019-05-10T19:44:22.598Z,33.30
2019-05-10T19:47:17.757Z,33.30
2019-05-10T19:50:06.769Z,33.30
2019-05-10T19:53:03.777Z,33.30
2019-05-10T19:55:57.240Z,33.30
2019-05-10T19:58:44.231Z,33.30
2019-05-10T20:01:35.889Z,33.30
2019-05-10T20:04:26.519Z,33.30
2019-05-10T20:07:17.824Z,33.30
2019-05-10T20:10:09.320Z,33.30
2019-05-10T20:13:00.261Z,33.30
2019-05-10T20:15:51.911Z,33.30
2019-05-10T20:18:47.114Z,33.30
2019-05-10T20:21:40.660Z,33.30
2019-05-10T20:24:32.386Z,33.30
2019-05-10T20:27:23.727Z,33.50
2019-05-10T20:30:15.410Z,33.40
2019-05-10T20:33:16.686Z,33.30
2019-05-10T20:36:08.241Z,33.30
2019-05-10T20:39:12.180Z,33.30
2019-05-10T20:42:21.502Z,33.30
2019-05-10T20:45:12.329Z,33.30
2019-05-10T20:48:03.366Z,33.30
2019-05-10T20:51:06.297Z,33.30
2019-05-10T20:53:58.564Z,33.30
2019-05-10T20:56:49.868Z,33.30
2019-05-10T20:59:40.895Z,33.30
2019-05-10T21:02:32.428Z,33.30
2019-05-10T21:05:23.694Z,33.40
2019-05-10T21:08:16.905Z,33.30
2019-05-10T21:11:07.487Z,33.30
2019-05-10T21:13:58.571Z,33.30
2019-05-10T21:16:58.086Z,33.40
2019-05-10T21:20:07.406Z,33.30
2019-05-10T21:23:04.550Z,33.30
2019-05-10T21:25:55.656Z,33.40
2019-05-10T21:28:47.254Z,33.40
2019-05-10T21:31:38.172Z,33.40
2019-05-10T21:34:32.017Z,33.40
2019-05-10T21:37:23.083Z,33.40
2019-05-10T21:40:14.412Z,33.40
2019-05-10T21:43:09.316Z,33.40
2019-05-10T21:46:00.627Z,33.40
2019-05-10T21:49:05.214Z,33.40
2019-05-10T21:51:56.232Z,33.40
2019-05-10T21:54:47.452Z,33.40
2019-05-10T21:57:38.635Z,33.40
2019-05-10T22:00:35.245Z,33.40
2019-05-10T22:03:26.399Z,33.40
2019-05-10T22:06:18.515Z,33.40
2019-05-10T22:09:11.106Z,33.40
2019-05-10T22:12:02.418Z,33.40
2019-05-10T22:14:53.161Z,33.50
2019-05-10T22:17:44.749Z,33.40
2019-05-10T22:20:50.559Z,33.40
2019-05-10T22:23:49.358Z,33.40
2019-05-10T22:26:40.385Z,33.40
2019-05-10T22:29:31.832Z,33.50
2019-05-10T22:32:29.564Z,33.50
2019-05-10T22:35:34.135Z,33.40
2019-05-10T22:38:25.579Z,33.40
2019-05-10T22:41:16.709Z,33.40
2019-05-10T22:44:08.414Z,33.40
2019-05-10T22:47:00.229Z,33.40
2019-05-10T22:49:56.988Z,33.40
2019-05-10T22:52:48.077Z,33.40
2019-05-10T22:55:39.005Z,33.40
2019-05-10T22:58:35.448Z,33.40
2019-05-10T23:01:26.228Z,33.40
2019-05-10T23:04:17.642Z,33.50
2019-05-10T23:07:15.751Z,33.40
2019-05-10T23:10:10.215Z,33.50
2019-05-10T23:13:01.793Z,33.50
2019-05-10T23:15:55.273Z,33.50
2019-05-10T23:18:46.461Z,33.40
2019-05-10T23:21:38.933Z,33.40
2019-05-10T23:24:41.017Z,33.40
2019-05-10T23:39:04.630Z,33.20
2019-05-10T23:41:55.996Z,33.20
2019-05-10T23:44:47.458Z,33.30
2019-05-10T23:47:38.427Z,33.30
2019-05-10T23:50:30.020Z,33.30
2019-05-10T23:53:21.260Z,33.40
2019-05-10T23:56:15.789Z,33.30
2019-05-10T23:59:08.137Z,33.40
